Time;durP1;ratioP1;P1;durP2;ratioP2;P2;SDS_P1;SDS_P2;PMS_P1;PMS_P2;Temp;Humidity;BMP_temperature;BMP_pressure;BME280_temperature;BME280_humidity;BME280_pressure;Samples;Min_cycle;Max_cycle;Signal;HPM_P1;HPM_P2
2022/05/06 00:00:29;;;;;;;36.87;33.13;;;11.00;99.90;;;9.97;100.00;98472.91;5073629;28;20727;-76
2022/05/06 00:02:58;;;;;;;32.80;29.63;;;11.10;99.90;;;9.68;99.09;98429.78;5072654;28;20523;-76
2022/05/06 00:05:25;;;;;;;33.93;30.67;;;11.00;99.90;;;9.99;100.00;98465.44;5081327;28;20482;-76
2022/05/06 00:07:52;;;;;;;30.50;27.37;;;11.10;99.90;;;9.75;98.34;98422.56;5082100;28;20893;-77
2022/05/06 00:10:20;;;;;;;29.93;27.00;;;11.10;99.90;;;10.20;96.64;98465.31;5094688;28;20435;-76
2022/05/06 00:12:47;;;;;;;29.63;26.53;;;11.20;99.90;;;10.16;96.28;98469.44;5093681;28;20459;-77
2022/05/06 00:15:14;;;;;;;26.70;24.10;;;11.30;99.90;;;10.00;94.96;98434.69;5090171;28;20999;-84
2022/05/06 00:17:41;;;;;;;27.90;25.27;;;11.30;99.90;;;10.01;95.38;98464.22;5093404;28;20980;-78
2022/05/06 00:20:11;;;;;;;29.07;26.07;;;11.20;99.90;;;9.83;96.83;98464.72;5089887;28;20450;-77
2022/05/06 00:22:38;;;;;;;29.33;26.30;;;11.00;99.90;;;9.85;99.44;98459.13;5088788;28;20951;-80
2022/05/06 00:25:06;;;;;;;28.73;26.00;;;11.00;99.90;;;9.75;96.14;98459.47;5075640;28;20444;-76
2022/05/06 00:27:33;;;;;;;28.40;25.40;;;11.00;99.90;;;9.73;97.43;98462.41;5108047;28;20496;-77
2022/05/06 00:30:01;;;;;;;27.23;24.60;;;10.90;99.90;;;9.35;94.96;98389.97;5091545;28;20451;-82
2022/05/06 00:32:28;;;;;;;29.50;26.70;;;11.00;99.90;;;9.70;96.88;98467.34;5090227;28;20999;-79
2022/05/06 00:34:55;;;;;;;27.20;24.40;;;10.90;99.90;;;9.65;96.65;98462.56;5090661;28;20497;-79
2022/05/06 00:37:23;;;;;;;26.17;23.83;;;10.90;99.90;;;9.71;95.77;98458.22;5086459;28;20543;-76
2022/05/06 00:39:51;;;;;;;25.17;22.63;;;10.90;99.90;;;9.77;95.71;98462.81;5096177;28;20451;-79
2022/05/06 00:42:18;;;;;;;25.13;22.73;;;10.90;99.90;;;9.54;94.57;98412.69;5085475;28;20448;-76
2022/05/06 00:44:45;;;;;;;26.07;23.27;;;11.00;99.90;;;9.76;94.31;98461.16;5092721;28;20479;-77
2022/05/06 00:47:15;;;;;;;24.67;22.13;;;10.90;99.90;;;9.59;93.91;98439.88;5092549;28;20444;-76
2022/05/06 00:49:42;;;;;;;25.93;23.47;;;10.90;99.90;;;9.83;94.48;98458.50;5092540;28;20957;-75
2022/05/06 00:52:11;;;;;;;23.80;21.40;;;10.90;99.90;;;9.74;93.81;98460.53;5107435;28;20462;-75
2022/05/06 00:54:40;;;;;;;25.37;22.97;;;10.90;99.90;;;9.70;94.43;98462.78;5086610;28;20470;-80
2022/05/06 00:57:08;;;;;;;25.90;23.10;;;10.90;99.90;;;9.78;94.26;98459.09;5080857;28;20502;-78
2022/05/06 01:00:17;;;;;;;28.53;25.73;;;10.90;99.90;;;9.73;95.78;98453.47;5089019;28;20911;-78
2022/05/06 01:02:23;;;;;;;28.10;25.10;;;10.90;99.90;;;9.76;95.41;98453.06;5086372;28;20452;-77
2022/05/06 01:04:51;;;;;;;28.80;26.00;;;10.90;99.90;;;9.51;97.76;98423.88;5091048;28;20455;-76
2022/05/06 01:07:21;;;;;;;28.07;25.40;;;10.90;99.90;;;9.29;97.85;98369.19;5091024;28;20498;-77
2022/05/06 01:09:52;;;;;;;29.10;26.30;;;10.90;99.90;;;9.59;98.63;98428.28;5105848;28;20453;-78
2022/05/06 01:12:19;;;;;;;29.43;26.63;;;10.90;99.90;;;9.67;98.65;98448.88;5091551;28;20481;-76
2022/05/06 01:14:46;;;;;;;30.67;27.47;;;10.90;99.90;;;9.56;99.93;98453.78;5091916;28;20439;-77
2022/05/06 01:17:14;;;;;;;33.10;27.50;;;10.80;99.90;;;9.40;99.64;98427.13;5078360;28;20786;-76
2022/05/06 01:19:41;;;;;;;31.70;28.30;;;10.80;99.90;;;9.09;98.66;98369.88;5091144;28;20461;-77
2022/05/06 01:22:10;;;;;;;30.33;27.43;;;10.80;99.90;;;9.71;98.30;98469.88;5091585;28;20470;-78
2022/05/06 01:24:37;;;;;;;30.13;27.30;;;10.80;99.90;;;9.35;98.65;98423.16;5091318;28;20532;-77
2022/05/06 01:27:08;;;;;;;29.90;26.80;;;10.80;99.90;;;9.72;98.73;98465.28;5090910;28;20563;-77
2022/05/06 01:29:38;;;;;;;31.07;28.07;;;10.80;99.90;;;9.55;99.94;98413.50;5079156;28;20600;-77
2022/05/06 01:32:08;;;;;;;31.13;28.23;;;10.90;99.90;;;9.63;99.13;98461.91;5079742;28;20983;-77
2022/05/06 01:34:39;;;;;;;28.43;25.80;;;10.80;99.90;;;9.51;99.42;98464.34;5114964;27;20496;-81
2022/05/06 01:37:09;;;;;;;28.33;25.63;;;10.70;99.90;;;9.26;97.81;98451.31;5082231;28;20531;-80
2022/05/06 01:39:38;;;;;;;28.93;26.23;;;10.70;99.90;;;9.41;99.06;98475.50;5087745;28;20455;-77
2022/05/06 01:42:07;;;;;;;27.50;24.97;;;10.70;99.90;;;9.20;97.87;98419.75;5086498;28;20487;-78
2022/05/06 01:44:38;;;;;;;27.53;24.93;;;10.70;99.90;;;8.93;98.40;98376.41;5105683;28;20844;-77
2022/05/06 01:47:14;;;;;;;26.17;23.53;;;10.70;99.90;;;9.68;96.98;98458.63;5079592;28;20538;-82
2022/05/06 01:49:43;;;;;;;24.57;22.07;;;10.80;99.90;;;9.86;95.47;98475.13;5081579;28;20946;-78
2022/05/06 01:52:17;;;;;;;24.67;22.20;;;10.90;99.90;;;9.69;95.66;98454.91;5086236;28;20494;-79
2022/05/06 01:54:44;;;;;;;23.77;21.50;;;10.80;99.90;;;9.52;94.68;98462.47;5081502;28;20446;-78
2022/05/06 01:57:12;;;;;;;23.67;21.20;;;10.70;99.90;;;9.40;96.24;98435.22;5087694;28;20512;-77
2022/05/06 01:59:39;;;;;;;22.30;20.40;;;10.70;99.90;;;9.54;96.42;98461.25;5088411;28;20490;-77
2022/05/06 02:02:07;;;;;;;24.60;22.30;;;10.70;99.90;;;9.56;96.73;98461.06;5085572;28;20443;-78
2022/05/06 02:07:20;;;;;;;22.80;20.50;;;10.70;99.90;;;9.00;96.37;98398.84;5076879;28;20440;-77
2022/05/06 02:09:48;;;;;;;19.90;17.80;;;10.60;99.90;;;9.47;93.95;98445.00;5086656;28;20440;-77
2022/05/06 02:12:16;;;;;;;17.83;16.20;;;10.60;99.90;;;9.44;91.83;98447.28;5089155;28;20477;-78
2022/05/06 02:14:44;;;;;;;17.40;15.70;;;10.70;99.20;;;8.62;91.77;98334.53;5080384;28;21075;-83
2022/05/06 02:17:11;;;;;;;19.50;17.50;;;10.60;98.00;;;8.88;91.60;98395.03;5102165;28;21004;-76
2022/05/06 02:19:39;;;;;;;16.80;15.10;;;10.60;97.60;;;9.21;92.05;98437.59;5090283;28;20953;-77
2022/05/06 02:22:06;;;;;;;17.37;15.53;;;10.50;99.40;;;9.28;90.86;98451.94;5103569;28;20503;-75
2022/05/06 02:24:34;;;;;;;17.03;15.40;;;10.50;97.30;;;8.92;90.35;98390.94;5084423;28;20451;-78
2022/05/06 02:27:02;;;;;;;16.43;14.93;;;10.50;96.20;;;9.16;91.45;98431.94;5081614;28;20840;-76
2022/05/06 02:29:29;;;;;;;16.47;14.83;;;10.50;98.70;;;9.01;90.57;98411.28;5089669;28;20451;-83
2022/05/06 02:34:56;;;;;;;16.73;15.20;;;10.40;94.90;;;9.23;89.96;98440.91;5023528;28;20460;-75
2022/05/06 02:37:23;;;;;;;16.20;14.57;;;10.50;96.10;;;9.26;90.12;98462.09;5005511;28;20450;-76
2022/05/06 02:39:52;;;;;;;15.70;14.20;;;10.50;95.90;;;9.27;91.10;98466.44;5036543;28;20686;-78
2022/05/06 02:42:19;;;;;;;17.53;15.87;;;10.40;97.80;;;8.58;91.24;98373.66;5086906;28;20441;-76
2022/05/06 02:44:46;;;;;;;17.93;16.13;;;10.40;97.70;;;8.96;91.83;98431.81;5102741;27;20446;-78
2022/05/06 02:47:13;;;;;;;18.70;16.90;;;10.40;97.70;;;8.75;91.90;98395.75;5087295;28;20869;-84
2022/05/06 02:49:41;;;;;;;17.40;15.70;;;10.30;98.40;;;9.35;90.88;98462.78;5082846;28;20510;-76
2022/05/06 02:52:09;;;;;;;17.23;15.53;;;10.50;99.10;;;9.22;91.39;98425.78;5084502;28;20452;-77
2022/05/06 02:54:36;;;;;;;15.90;14.53;;;10.60;99.90;;;9.37;91.97;98459.88;5085528;28;20943;-77
2022/05/06 02:57:06;;;;;;;22.53;20.33;;;10.50;99.90;;;9.32;92.68;98461.28;5080732;28;20455;-80
2022/05/06 02:59:33;;;;;;;17.03;14.87;;;10.50;99.90;;;9.26;91.53;98451.31;5086305;28;20509;-77
2022/05/06 03:02:00;;;;;;;15.53;14.03;;;10.50;98.10;;;9.47;89.07;98455.81;5090728;28;20486;-79
2022/05/06 03:04:27;;;;;;;15.37;14.07;;;10.50;96.20;;;9.59;88.18;98449.88;5085915;28;20573;-76
2022/05/06 03:06:55;;;;;;;15.40;13.73;;;10.70;95.90;;;9.52;89.68;98457.91;5088774;28;20537;-79
2022/05/06 03:09:22;;;;;;;16.60;15.00;;;10.60;96.30;;;9.43;90.81;98451.00;5091337;28;20435;-78
2022/05/06 03:11:49;;;;;;;15.23;13.70;;;10.60;97.80;;;9.40;89.24;98459.50;5104974;28;20455;-75
2022/05/06 03:14:17;;;;;;;15.53;13.63;;;10.60;95.30;;;9.63;88.73;98456.53;5086478;28;20556;-75
2022/05/06 03:16:44;;;;;;;15.10;13.20;;;10.70;95.50;;;9.43;88.19;98454.53;5089083;28;20433;-76
2022/05/06 03:19:12;;;;;;;15.47;14.07;;;10.70;94.20;;;9.38;89.58;98454.28;5089565;28;20518;-75
2022/05/06 03:21:39;;;;;;;14.70;13.30;;;10.60;95.60;;;9.25;88.17;98449.63;5089101;28;20443;-77
2022/05/06 03:24:06;;;;;;;14.00;11.67;;;10.50;94.50;;;9.23;88.50;98450.84;5089029;28;20509;-76
2022/05/06 03:26:34;;;;;;;18.07;13.10;;;10.50;94.20;;;9.17;89.39;98453.31;5088759;28;20562;-76
2022/05/06 03:29:01;;;;;;;14.40;12.73;;;10.40;94.70;;;9.07;87.98;98442.88;5090522;28;20551;-78
2022/05/06 03:31:31;;;;;;;15.10;12.87;;;10.40;93.80;;;9.15;88.68;98451.84;5085626;28;20451;-76
2022/05/06 03:34:00;;;;;;;13.97;12.70;;;10.40;93.70;;;8.84;89.58;98413.47;5093858;28;20470;-78
2022/05/06 03:36:27;;;;;;;13.20;12.00;;;10.40;94.90;;;8.98;88.24;98435.13;5092153;28;20501;-76
2022/05/06 03:38:54;;;;;;;14.50;13.20;;;10.40;94.40;;;8.95;89.01;98435.50;5093902;28;20451;-77
2022/05/06 03:41:21;;;;;;;15.97;14.47;;;10.30;95.00;;;9.11;89.49;98466.75;5091353;28;20458;-75
2022/05/06 03:43:49;;;;;;;18.07;16.33;;;10.40;95.40;;;8.62;90.97;98393.78;5091844;28;20886;-74
2022/05/06 03:46:16;;;;;;;17.50;15.67;;;10.30;96.60;;;9.06;90.81;98462.78;5089413;28;20545;-79
2022/05/06 03:48:45;;;;;;;17.43;15.63;;;10.30;97.20;;;9.13;90.58;98464.69;5090285;28;20490;-75
2022/05/06 03:51:23;;;;;;;17.67;15.87;;;10.30;96.40;;;9.17;90.71;98465.94;5087892;28;21145;-76
2022/05/06 03:53:51;;;;;;;14.53;12.97;;;10.40;96.90;;;9.18;89.62;98471.16;5091959;28;20463;-79
2022/05/06 03:56:19;;;;;;;13.90;12.50;;;10.40;96.30;;;9.14;89.05;98475.28;5089133;28;20450;-75
2022/05/06 03:58:47;;;;;;;12.07;10.87;;;10.40;94.60;;;9.27;87.11;98466.44;5089849;28;20450;-82
2022/05/06 04:01:14;;;;;;;12.97;11.67;;;10.50;93.70;;;8.94;88.72;98413.13;5088187;28;20541;-74
2022/05/06 04:03:41;;;;;;;11.83;10.43;;;10.50;94.60;;;9.15;89.19;98451.84;5087898;28;20489;-79
2022/05/06 04:06:13;;;;;;;11.80;10.70;;;10.50;96.10;;;9.37;87.54;98473.38;5080021;28;20809;-82
2022/05/06 04:08:41;;;;;;;12.63;11.27;;;10.50;94.20;;;9.39;87.81;98463.22;5092029;28;20443;-80
2022/05/06 04:11:09;;;;;;;12.53;11.33;;;10.60;94.60;;;9.64;87.70;98469.81;5090551;28;20672;-77
2022/05/06 04:14:03;;;;;;;9.63;8.77;;;10.70;94.80;;;8.91;83.45;98394.66;5091773;28;20669;-77
2022/05/06 04:16:30;;;;;;;9.27;8.37;;;10.70;90.80;;;9.31;85.14;98448.84;5087709;28;20462;-77
2022/05/06 04:19:10;;;;;;;10.57;9.30;;;10.70;91.70;;;9.60;87.56;98478.50;5091379;28;20448;-80
2022/05/06 04:24:35;;;;;;;9.23;8.27;;;10.80;90.80;;;8.89;83.55;98383.25;5086766;28;20435;-77
2022/05/06 04:27:03;;;;;;;11.43;9.07;;;10.80;90.20;;;9.34;85.05;98467.34;5088255;28;20459;-76
2022/05/06 04:29:30;;;;;;;10.20;9.07;;;10.70;91.10;;;9.57;85.43;98495.91;5094259;28;20459;-76
2022/05/06 04:31:57;;;;;;;8.87;8.07;;;10.70;91.40;;;9.54;85.61;98474.72;5091413;28;20439;-77
2022/05/06 04:34:24;;;;;;;9.47;8.60;;;10.70;92.50;;;9.59;86.55;98495.72;5091972;28;20473;-76
2022/05/06 04:36:54;;;;;;;10.50;9.47;;;10.70;93.00;;;9.56;84.87;98505.03;5083240;28;20844;-80
2022/05/06 04:39:22;;;;;;;8.83;7.93;;;10.80;91.60;;;9.42;84.50;98500.56;5104667;28;20465;-82
2022/05/06 04:41:49;;;;;;;9.80;8.90;;;10.60;90.90;;;9.56;84.71;98509.63;5093041;28;20462;-84
2022/05/06 04:44:16;;;;;;;9.97;9.03;;;10.70;91.80;;;9.63;85.36;98494.28;5092493;28;20505;-82
2022/05/06 04:46:43;;;;;;;10.17;9.17;;;10.80;91.60;;;9.64;84.82;98491.41;5093466;28;20463;-85
2022/05/06 04:49:10;;;;;;;9.40;8.50;;;10.90;92.20;;;9.48;83.90;98446.69;5091446;28;20485;-84
2022/05/06 04:51:38;;;;;;;8.97;8.10;;;11.00;91.80;;;9.81;83.67;98506.44;5092386;28;20444;-85
2022/05/06 04:54:11;;;;;;;8.00;7.30;;;11.00;90.80;;;9.60;83.53;98500.91;5089602;28;20523;-77
2022/05/06 04:56:39;;;;;;;9.53;8.50;;;10.90;89.20;;;9.41;83.19;98485.44;5081539;28;20947;-85
2022/05/06 04:59:07;;;;;;;8.57;7.70;;;10.90;90.00;;;9.85;82.53;98519.34;5075613;28;20470;-86
2022/05/06 05:01:34;;;;;;;10.90;8.17;;;11.00;90.00;;;10.09;81.77;98525.28;5088605;28;20464;-82
2022/05/06 05:04:01;;;;;;;8.77;7.83;;;11.20;90.00;;;10.21;79.00;98523.66;5090702;28;21035;-80
2022/05/06 05:06:28;;;;;;;8.27;7.33;;;11.30;86.80;;;10.20;79.81;98524.69;5083767;28;20486;-82
2022/05/06 05:08:55;;;;;;;7.90;7.20;;;11.30;86.90;;;10.23;78.33;98525.34;5080159;28;21208;-77
2022/05/06 05:11:24;;;;;;;6.90;6.30;;;11.40;85.10;;;10.32;78.24;98524.13;5076821;28;20495;-80
2022/05/06 05:13:51;;;;;;;8.27;7.10;;;11.40;84.90;;;10.55;77.28;98528.44;5086824;28;20573;-78
2022/05/06 05:16:18;;;;;;;7.50;6.87;;;11.60;84.80;;;10.68;76.93;98531.16;5093972;27;20793;-78
2022/05/06 05:18:46;;;;;;;8.30;6.97;;;11.70;84.30;;;10.93;76.95;98525.19;5082022;28;20462;-77
2022/05/06 05:21:13;;;;;;;7.67;6.97;;;11.90;84.80;;;10.87;76.29;98517.91;5084419;28;20463;-81
2022/05/06 05:23:40;;;;;;;7.43;6.73;;;12.00;83.90;;;11.02;76.76;98521.25;5077797;28;20456;-76
2022/05/06 05:26:07;;;;;;;7.43;6.23;;;12.10;84.10;;;11.02;76.74;98523.13;5078401;28;20457;-76
2022/05/06 05:28:36;;;;;;;7.03;6.33;;;12.20;83.60;;;10.83;74.24;98522.03;5105231;27;20466;-84
2022/05/06 05:31:03;;;;;;;6.57;5.97;;;12.10;81.20;;;11.11;74.52;98531.84;5075441;28;20449;-81
2022/05/06 05:33:31;;;;;;;7.10;6.50;;;12.20;82.00;;;11.10;74.98;98519.38;5083536;28;20483;-80
2022/05/06 05:35:58;;;;;;;7.80;7.03;;;12.30;82.00;;;11.16;75.01;98532.09;5085451;28;20467;-76
2022/05/06 05:38:25;;;;;;;7.70;6.37;;;12.30;82.00;;;11.30;73.32;98525.66;5080910;28;20601;-78
2022/05/06 05:40:52;;;;;;;10.73;6.60;;;12.40;81.40;;;11.55;73.71;98527.72;5081708;28;20652;-75
2022/05/06 05:48:51;;;;;;;7.13;5.60;;;12.70;80.20;;;11.58;70.64;98529.97;5074192;28;20464;-79
2022/05/06 05:51:19;;;;;;;5.90;5.40;;;12.70;79.80;;;11.60;72.38;98533.34;5076711;28;20452;-80
2022/05/06 05:53:46;;;;;;;5.33;4.83;;;12.70;80.30;;;11.59;69.90;98538.94;5082080;28;20561;-76
2022/05/06 05:56:13;;;;;;;6.37;5.70;;;12.70;78.80;;;11.55;69.94;98533.13;5069880;28;20436;-80
2022/05/06 05:58:40;;;;;;;6.60;5.03;;;12.60;78.60;;;11.77;70.76;98538.31;5081103;28;20451;-79
2022/05/06 06:01:09;;;;;;;6.50;5.90;;;12.80;79.00;;;11.92;68.95;98534.53;5073733;28;20496;-76
2022/05/06 06:03:36;;;;;;;6.50;5.03;;;13.00;78.50;;;12.15;70.22;98543.03;5074608;28;20931;-80
2022/05/06 06:06:03;;;;;;;5.77;5.23;;;13.10;79.00;;;12.18;68.24;98542.59;5077532;28;20456;-77
2022/05/06 06:08:30;;;;;;;6.30;5.60;;;13.20;77.50;;;12.27;69.63;98545.91;5077447;28;20552;-78
2022/05/06 06:11:01;;;;;;;6.60;5.40;;;13.30;78.50;;;12.36;68.13;98537.56;5080322;28;20571;-79
2022/05/06 06:13:30;;;;;;;7.40;4.70;;;13.40;77.60;;;12.56;67.14;98530.16;5067765;28;20503;-79
2022/05/06 06:15:57;;;;;;;5.00;4.53;;;13.60;77.00;;;12.48;68.45;98530.44;5079581;28;20726;-82
2022/05/06 06:18:27;;;;;;;5.03;4.50;;;13.60;77.80;;;12.43;65.96;98547.31;5082301;28;20516;-79
2022/05/06 06:20:54;;;;;;;5.60;5.00;;;13.60;75.80;;;12.49;66.83;98551.06;5072029;28;20463;-79
2022/05/06 06:23:21;;;;;;;5.63;5.10;;;13.60;76.20;;;12.66;67.39;98537.84;5084162;28;20521;-77
2022/05/06 06:25:48;;;;;;;5.10;4.60;;;13.70;77.10;;;12.78;65.74;98539.88;5074504;28;20559;-79
2022/05/06 06:28:16;;;;;;;5.03;4.53;;;13.80;75.70;;;12.84;64.35;98552.56;5082712;28;20538;-79
2022/05/06 06:30:43;;;;;;;6.00;4.20;;;13.90;74.80;;;12.81;63.56;98550.28;5079410;28;20456;-78
2022/05/06 06:33:10;;;;;;;4.20;3.80;;;13.90;73.70;;;12.84;63.59;98549.88;5079776;28;20453;-75
2022/05/06 06:35:39;;;;;;;4.17;3.87;;;13.90;73.40;;;12.60;63.27;98534.13;5069509;28;20482;-78
2022/05/06 06:38:06;;;;;;;5.70;5.17;;;13.80;72.70;;;12.72;64.44;98545.13;5082062;28;20546;-78
2022/05/06 06:40:34;;;;;;;6.03;3.57;;;13.80;73.60;;;12.83;64.03;98545.50;5096835;28;20449;-78
2022/05/06 06:43:02;;;;;;;4.57;4.07;;;13.90;73.40;;;12.92;63.79;98552.31;5077447;28;20452;-79
2022/05/06 06:45:29;;;;;;;8.40;4.73;;;14.00;73.50;;;12.82;64.35;98552.78;5079218;28;20809;-78
2022/05/06 06:47:57;;;;;;;5.87;4.40;;;13.90;73.40;;;12.98;64.88;98546.03;5082001;28;20457;-78
2022/05/06 06:50:25;;;;;;;5.07;4.23;;;14.00;74.10;;;13.20;63.44;98553.78;5075315;28;20485;-78
2022/05/06 06:52:54;;;;;;;5.33;4.40;;;14.30;73.80;;;13.43;63.64;98557.81;5079358;28;20533;-75
2022/05/06 06:55:21;;;;;;;4.97;4.60;;;14.40;73.80;;;13.76;63.16;98545.88;5076898;28;20567;-77
2022/05/06 06:57:50;;;;;;;4.87;4.00;;;14.70;73.80;;;14.15;61.04;98554.66;5087515;28;20461;-76
2022/05/06 07:00:19;;;;;;;4.37;3.97;;;15.00;72.60;;;14.16;61.18;98559.03;5081557;28;20494;-83
2022/05/06 07:02:46;;;;;;;5.87;4.20;;;15.20;72.20;;;14.14;60.51;98547.56;5075757;28;20452;-80
2022/05/06 07:05:13;;;;;;;7.73;4.77;;;15.20;71.20;;;14.12;61.65;98540.72;5093384;28;20460;-74
2022/05/06 07:13:20;;;;;;;4.10;3.70;;;15.30;71.90;;;14.32;61.52;98540.47;5077477;28;20537;-78
2022/05/06 07:15:47;;;;;;;7.03;3.37;;;15.40;71.80;;;14.07;60.24;98541.38;5094702;28;21372;-83
2022/05/06 07:18:14;;;;;;;5.00;3.57;;;15.20;70.30;;;14.19;59.69;98527.06;5079643;28;20452;-80
2022/05/06 07:20:42;;;;;;;3.93;3.40;;;15.30;70.10;;;14.38;58.50;98536.84;5084666;28;20536;-77
2022/05/06 07:23:10;;;;;;;4.73;3.20;;;15.40;69.40;;;14.78;57.54;98548.28;5080551;28;20453;-79
2022/05/06 07:25:38;;;;;;;4.20;3.73;;;15.70;69.20;;;14.78;57.83;98551.00;5081238;28;20474;-77
2022/05/06 07:28:07;;;;;;;7.23;3.93;;;15.80;69.20;;;14.38;59.98;98555.88;5087775;28;20465;-77
2022/05/06 07:30:35;;;;;;;6.40;4.10;;;15.60;69.60;;;15.08;57.98;98556.47;5090580;28;20468;-80
2022/05/06 07:33:02;;;;;;;7.50;3.40;;;15.90;69.90;;;15.09;56.51;98551.84;5087695;28;20481;-74
2022/05/06 07:35:30;;;;;;;6.63;3.57;;;16.00;68.40;;;14.87;59.71;98549.63;5087121;28;20607;-76
2022/05/06 07:37:57;;;;;;;6.33;3.63;;;16.10;69.50;;;14.93;56.92;98554.16;5074361;28;20456;-77
2022/05/06 07:40:24;;;;;;;3.80;2.73;;;16.00;67.30;;;15.01;52.46;98553.84;5079376;28;20466;-80
2022/05/06 07:42:53;;;;;;;3.10;2.90;;;16.10;63.20;;;14.92;55.48;98549.75;5085716;28;21122;-78
2022/05/06 07:45:20;;;;;;;4.63;3.47;;;16.00;65.20;;;15.09;53.96;98551.84;5080333;28;20541;-79
2022/05/06 07:47:47;;;;;;;3.30;3.00;;;16.10;64.20;;;15.13;53.30;98542.16;5078108;28;20545;-76
2022/05/06 07:50:15;;;;;;;4.53;2.57;;;16.20;63.00;;;15.09;52.79;98560.00;5079145;28;21051;-71
2022/05/06 07:52:42;;;;;;;6.07;2.50;;;16.20;62.30;;;14.90;50.29;98565.50;5081273;28;20544;-70
2022/05/06 07:55:10;;;;;;;3.50;2.80;;;16.10;60.00;;;15.06;53.55;98568.63;5086313;28;20560;-75
2022/05/06 07:57:37;;;;;;;2.43;2.23;;;16.00;62.50;;;14.95;53.90;98570.25;5085476;28;20459;-74
2022/05/06 08:00:07;;;;;;;2.90;2.70;;;16.10;62.70;;;15.12;51.39;98571.25;5072950;28;20469;-75
2022/05/06 08:05:22;;;;;;;3.80;2.37;;;16.20;60.30;;;15.24;50.82;98573.19;5080518;28;20535;-74
2022/05/06 08:07:49;;;;;;;3.80;1.93;;;16.30;59.60;;;15.26;48.12;98568.34;5073653;28;20463;-75
2022/05/06 08:10:19;;;;;;;4.73;1.93;;;16.30;57.10;;;15.18;50.14;98574.13;5084127;28;20460;-73
2022/05/06 08:12:46;;;;;;;2.90;2.10;;;16.30;58.40;;;15.48;49.47;98570.53;5081516;28;20457;-74
2022/05/06 08:15:15;;;;;;;3.00;2.17;;;16.40;58.30;;;15.50;46.43;98571.94;5081554;28;20479;-72
2022/05/06 08:17:42;;;;;;;4.20;1.97;;;16.60;56.60;;;15.55;47.37;98574.81;5078558;28;20968;-76
2022/05/06 08:20:10;;;;;;;4.10;2.40;;;16.50;56.10;;;15.58;47.98;98576.22;5082612;28;20845;-75
2022/05/06 08:22:38;;;;;;;3.03;2.23;;;16.60;56.50;;;15.46;48.17;98572.63;5082611;28;20484;-75
2022/05/06 08:25:06;;;;;;;6.90;2.40;;;16.60;56.30;;;15.55;47.02;98585.69;5087391;28;20454;-74
2022/05/06 08:27:37;;;;;;;2.73;2.00;;;16.60;55.40;;;15.70;46.13;98581.69;5081681;28;20454;-75
2022/05/06 08:30:08;;;;;;;6.53;1.90;;;16.70;54.90;;;15.88;46.75;98577.22;5084203;28;20807;-73
2022/05/06 08:32:36;;;;;;;3.43;2.40;;;16.90;55.30;;;16.02;46.02;98572.38;5083893;28;20458;-77
2022/05/06 08:35:05;;;;;;;3.93;1.90;;;17.00;54.70;;;16.25;45.90;98582.41;5081296;28;20473;-75
2022/05/06 08:37:41;;;;;;;2.10;1.70;;;17.20;55.00;;;16.37;45.47;98582.41;5081657;28;20458;-74
2022/05/06 08:40:10;;;;;;;2.80;2.03;;;17.30;54.70;;;16.11;44.36;98584.56;5084158;28;20479;-74
2022/05/06 08:42:37;;;;;;;4.60;2.57;;;17.20;53.00;;;16.16;43.91;98581.16;5099121;28;20469;-77
2022/05/06 08:50:53;;;;;;;3.63;2.13;;;17.30;53.90;;;16.54;43.24;98579.78;5079293;28;20489;-73
2022/05/06 08:53:22;;;;;;;3.07;2.30;;;17.50;52.70;;;16.69;44.14;98585.53;5077312;28;20458;-70
2022/05/06 08:55:51;;;;;;;2.63;2.30;;;17.60;52.90;;;16.96;43.70;98582.25;5094204;27;20463;-69
2022/05/06 08:58:18;;;;;;;6.70;1.87;;;17.80;52.90;;;17.35;43.16;98578.88;5072796;28;20483;-70
2022/05/06 09:00:46;;;;;;;3.20;2.30;;;18.20;52.80;;;17.38;42.18;98585.78;5079103;28;20460;-70
2022/05/06 09:03:15;;;;;;;4.07;2.13;;;18.40;52.00;;;17.04;42.36;98589.25;5098683;28;21286;-69
2022/05/06 09:05:52;;;;;;;4.40;1.80;;;18.20;51.70;;;16.83;41.79;98588.00;5072320;28;20454;-69
2022/05/06 09:08:22;;;;;;;3.60;1.93;;;18.00;50.80;;;17.01;41.78;98592.47;5073288;28;20440;-69
2022/05/06 09:11:04;;;;;;;2.30;2.10;;;18.00;50.90;;;17.30;42.32;98588.88;5080886;28;20903;-68
2022/05/06 09:13:32;;;;;;;5.23;1.97;;;18.20;51.60;;;17.22;42.96;98582.78;5082825;28;21006;-70
2022/05/06 09:19:20;;;;;;;3.80;2.23;;;18.40;52.10;;;17.14;42.98;98591.34;5083272;28;20448;-70
2022/05/06 09:22:11;;;;;;;4.20;2.20;;;18.30;51.70;;;17.12;41.82;98588.03;5074222;28;21017;-70
2022/05/06 09:24:41;;;;;;;3.03;2.10;;;18.20;50.50;;;17.38;42.45;98581.13;5078773;28;21027;-70
2022/05/06 09:27:12;;;;;;;1.87;1.67;;;18.40;51.40;;;17.26;42.26;98583.94;5072719;28;20571;-71
2022/05/06 09:29:41;;;;;;;2.92;2.00;;;18.30;51.00;;;17.25;42.32;98586.88;5077934;28;20474;-71
2022/05/06 09:32:18;;;;;;;2.95;1.90;;;18.30;51.10;;;17.31;41.48;98582.34;5076083;28;20956;-73
2022/05/06 09:34:50;;;;;;;2.13;2.00;;;18.40;50.50;;;17.34;43.33;98584.59;5096739;28;20233;-83
2022/05/06 09:37:35;;;;;;;2.78;2.22;;;18.40;52.00;;;17.97;42.13;98577.16;5085998;28;20485;-81
2022/05/06 09:40:07;;;;;;;4.03;2.43;;;18.80;51.80;;;18.11;41.44;98594.06;5083496;28;20626;-81
2022/05/06 09:42:35;;;;;;;2.70;2.47;;;19.00;51.10;;;18.19;40.47;98584.59;5081201;28;20462;-81
2022/05/06 09:45:02;;;;;;;2.63;2.40;;;19.20;50.40;;;18.33;40.57;98578.75;5082796;28;20543;-81
2022/05/06 09:47:29;;;;;;;2.27;1.93;;;19.30;50.30;;;18.26;41.96;98584.41;5083185;28;20558;-76
2022/05/06 09:49:58;;;;;;;2.40;2.13;;;19.20;51.20;;;17.92;41.04;98486.03;5083191;28;20452;-82
2022/05/06 09:52:25;;;;;;;2.90;1.83;;;19.30;51.00;;;18.55;39.96;98581.50;5075057;28;20522;-79
2022/05/06 09:54:55;;;;;;;3.13;2.13;;;19.50;50.00;;;18.33;40.76;98581.50;5082659;28;20468;-80
2022/05/06 09:57:23;;;;;;;2.53;2.37;;;19.40;50.20;;;18.45;40.29;98581.41;5078594;28;20457;-81
2022/05/06 09:59:50;;;;;;;2.90;2.20;;;19.40;49.80;;;18.04;39.11;98584.38;5082922;28;20455;-77
2022/05/06 10:02:18;;;;;;;2.57;1.83;;;19.20;48.80;;;18.10;40.91;98584.19;5081149;28;21391;-79
2022/05/06 10:04:47;;;;;;;3.20;2.60;;;19.10;49.90;;;18.12;40.00;98584.81;5078360;28;20545;-79
2022/05/06 10:07:19;;;;;;;3.53;2.30;;;19.10;49.50;;;18.08;40.38;98586.34;5075509;28;20456;-77
2022/05/06 10:09:56;;;;;;;3.80;2.30;;;19.10;49.50;;;18.27;40.38;98586.06;5099430;27;20504;-79
2022/05/06 10:12:25;;;;;;;2.47;2.00;;;19.20;49.60;;;18.62;40.51;98581.31;5078684;28;20512;-79
2022/05/06 10:14:54;;;;;;;3.83;1.93;;;19.50;50.10;;;18.51;40.65;98591.31;5081985;28;20485;-80
2022/05/06 10:17:54;;;;;;;4.83;2.17;;;19.50;49.70;;;18.41;39.09;98587.34;5076730;28;20452;-81
2022/05/06 10:20:58;;;;;;;4.70;2.00;;;19.40;48.70;;;18.61;39.17;98591.47;5099481;28;20472;-84
2022/05/06 10:23:44;;;;;;;2.67;2.47;;;19.60;49.30;;;18.30;40.34;98592.94;5083990;28;20450;-80
2022/05/06 10:26:45;;;;;;;3.30;2.73;;;19.40;48.90;;;18.54;40.38;98588.06;5083893;28;21028;-79
2022/05/06 10:32:57;;;;;;;3.47;2.40;;;19.60;48.80;;;18.84;38.70;98581.31;5103995;28;20453;-76
2022/05/06 10:35:42;;;;;;;2.53;2.07;;;19.90;48.40;;;18.82;39.64;98584.34;5099299;28;20459;-81
2022/05/06 10:38:23;;;;;;;3.23;2.40;;;19.80;49.30;;;18.87;38.42;98577.25;5108680;27;20467;-79
2022/05/06 10:40:57;;;;;;;2.90;2.10;;;19.80;48.30;;;18.95;39.70;98574.03;5083861;28;20474;-81
2022/05/06 10:43:55;;;;;;;4.07;2.80;;;20.00;49.30;;;18.85;38.16;98568.47;5085349;28;20450;-81
2022/05/06 10:46:33;;;;;;;3.73;3.20;;;19.90;47.70;;;18.78;38.33;98563.19;5096104;28;20456;-80
2022/05/06 10:49:51;;;;;;;5.77;3.37;;;19.80;48.00;;;18.79;38.74;98567.59;5084254;28;20459;-80
2022/05/06 10:52:44;;;;;;;8.77;3.33;;;19.80;47.70;;;18.63;38.77;98563.81;5077197;28;20549;-76
2022/05/06 10:55:15;;;;;;;4.03;3.60;;;19.70;47.90;;;18.65;39.40;98569.88;5080159;28;20490;-82
2022/05/06 10:57:58;;;;;;;3.73;3.43;;;19.70;48.20;;;18.67;39.10;98565.81;5075310;28;20485;-79
2022/05/06 11:00:28;;;;;;;4.33;3.70;;;19.70;48.20;;;18.90;37.99;98566.63;5098956;28;20458;-81
2022/05/06 11:02:57;;;;;;;4.00;3.53;;;19.90;47.60;;;18.76;38.58;98570.84;5079041;28;20998;-82